sensor_id;sensor_type;location;lat;lon;timestamp;P1;durP1;ratioP1;P2;durP2;ratioP2
58760;SDS011;44529;47.464;19.014;2022-10-31T00:00:33;61.28;;;35.13;;
58760;SDS011;44529;47.464;19.014;2022-10-31T00:03:35;64.85;;;37.53;;
58760;SDS011;44529;47.464;19.014;2022-10-31T00:06:37;66.43;;;38.70;;
58760;SDS011;44529;47.464;19.014;2022-10-31T00:09:40;68.72;;;37.33;;
58760;SDS011;44529;47.464;19.014;2022-10-31T00:12:42;67.37;;;36.92;;
58760;SDS011;44529;47.464;19.014;2022-10-31T00:15:44;75.30;;;38.63;;
58760;SDS011;44529;47.464;19.014;2022-10-31T00:18:54;66.75;;;38.88;;
58760;SDS011;44529;47.464;19.014;2022-10-31T00:21:58;69.12;;;38.15;;
58760;SDS011;44529;47.464;19.014;2022-10-31T00:25:00;68.65;;;37.55;;
58760;SDS011;44529;47.464;19.014;2022-10-31T00:28:02;73.10;;;39.00;;
58760;SDS011;44529;47.464;19.014;2022-10-31T00:31:06;78.18;;;39.42;;
58760;SDS011;44529;47.464;19.014;2022-10-31T00:34:10;73.62;;;39.17;;
58760;SDS011;44529;47.464;19.014;2022-10-31T00:37:12;70.57;;;38.33;;
58760;SDS011;44529;47.464;19.014;2022-10-31T00:40:16;66.37;;;35.58;;
58760;SDS011;44529;47.464;19.014;2022-10-31T00:43:18;70.12;;;36.38;;
58760;SDS011;44529;47.464;19.014;2022-10-31T00:46:21;77.00;;;38.28;;
58760;SDS011;44529;47.464;19.014;2022-10-31T00:49:24;72.12;;;38.00;;
58760;SDS011;44529;47.464;19.014;2022-10-31T00:52:26;71.72;;;37.97;;
58760;SDS011;44529;47.464;19.014;2022-10-31T00:55:29;69.22;;;37.30;;
58760;SDS011;44529;47.464;19.014;2022-10-31T00:58:31;70.22;;;36.92;;
58760;SDS011;44529;47.464;19.014;2022-10-31T01:01:33;66.32;;;35.92;;
58760;SDS011;44529;47.464;19.014;2022-10-31T01:04:36;59.63;;;34.47;;
58760;SDS011;44529;47.464;19.014;2022-10-31T01:07:39;59.45;;;31.98;;
58760;SDS011;44529;47.464;19.014;2022-10-31T01:10:43;57.28;;;33.97;;
58760;SDS011;44529;47.464;19.014;2022-10-31T01:13:45;61.03;;;32.95;;
58760;SDS011;44529;47.464;19.014;2022-10-31T01:16:48;57.10;;;31.65;;
58760;SDS011;44529;47.464;19.014;2022-10-31T01:19:50;51.95;;;30.00;;
58760;SDS011;44529;47.464;19.014;2022-10-31T01:22:52;46.90;;;27.85;;
58760;SDS011;44529;47.464;19.014;2022-10-31T01:29:05;43.72;;;26.02;;
58760;SDS011;44529;47.464;19.014;2022-10-31T01:32:09;39.92;;;23.87;;
58760;SDS011;44529;47.464;19.014;2022-10-31T01:35:11;36.35;;;22.87;;
58760;SDS011;44529;47.464;19.014;2022-10-31T01:38:13;36.60;;;21.58;;
58760;SDS011;44529;47.464;19.014;2022-10-31T01:41:17;35.00;;;22.45;;
58760;SDS011;44529;47.464;19.014;2022-10-31T01:47:28;37.67;;;23.27;;
58760;SDS011;44529;47.464;19.014;2022-10-31T01:50:35;34.75;;;21.73;;
58760;SDS011;44529;47.464;19.014;2022-10-31T01:53:40;35.33;;;22.83;;
58760;SDS011;44529;47.464;19.014;2022-10-31T01:56:47;33.30;;;21.58;;
58760;SDS011;44529;47.464;19.014;2022-10-31T01:59:54;35.95;;;21.62;;
58760;SDS011;44529;47.464;19.014;2022-10-31T02:03:00;34.50;;;22.58;;
58760;SDS011;44529;47.464;19.014;2022-10-31T02:06:03;35.47;;;22.73;;
58760;SDS011;44529;47.464;19.014;2022-10-31T02:09:09;35.85;;;22.90;;
58760;SDS011;44529;47.464;19.014;2022-10-31T02:12:14;36.55;;;22.77;;
58760;SDS011;44529;47.464;19.014;2022-10-31T02:15:18;30.23;;;20.50;;
58760;SDS011;44529;47.464;19.014;2022-10-31T02:18:22;30.05;;;19.55;;
58760;SDS011;44529;47.464;19.014;2022-10-31T02:38:13;39.22;;;22.73;;
58760;SDS011;44529;47.464;19.014;2022-10-31T02:45:00;32.70;;;20.90;;
58760;SDS011;44529;47.464;19.014;2022-10-31T02:48:20;38.58;;;21.90;;
58760;SDS011;44529;47.464;19.014;2022-10-31T02:51:29;37.92;;;22.92;;
58760;SDS011;44529;47.464;19.014;2022-10-31T02:54:31;36.08;;;23.40;;
58760;SDS011;44529;47.464;19.014;2022-10-31T02:57:33;40.88;;;24.77;;
58760;SDS011;44529;47.464;19.014;2022-10-31T03:00:38;41.55;;;24.37;;
58760;SDS011;44529;47.464;19.014;2022-10-31T03:07:30;40.22;;;24.00;;
58760;SDS011;44529;47.464;19.014;2022-10-31T03:13:59;42.78;;;23.25;;
58760;SDS011;44529;47.464;19.014;2022-10-31T03:17:09;34.92;;;22.55;;
58760;SDS011;44529;47.464;19.014;2022-10-31T03:20:22;33.67;;;20.60;;
58760;SDS011;44529;47.464;19.014;2022-10-31T03:23:30;33.80;;;21.00;;
58760;SDS011;44529;47.464;19.014;2022-10-31T03:26:36;35.00;;;20.73;;
58760;SDS011;44529;47.464;19.014;2022-10-31T03:29:43;33.92;;;20.42;;
58760;SDS011;44529;47.464;19.014;2022-10-31T03:32:48;27.30;;;18.23;;
58760;SDS011;44529;47.464;19.014;2022-10-31T03:35:57;30.48;;;19.60;;
58760;SDS011;44529;47.464;19.014;2022-10-31T03:39:03;29.90;;;18.92;;
58760;SDS011;44529;47.464;19.014;2022-10-31T03:42:15;28.77;;;18.77;;
58760;SDS011;44529;47.464;19.014;2022-10-31T03:45:24;28.62;;;19.15;;
58760;SDS011;44529;47.464;19.014;2022-10-31T03:48:30;29.98;;;19.42;;
58760;SDS011;44529;47.464;19.014;2022-10-31T03:54:54;38.30;;;22.52;;
58760;SDS011;44529;47.464;19.014;2022-10-31T03:58:05;41.58;;;23.10;;
58760;SDS011;44529;47.464;19.014;2022-10-31T04:01:16;37.58;;;22.37;;
58760;SDS011;44529;47.464;19.014;2022-10-31T04:04:21;43.53;;;23.90;;
58760;SDS011;44529;47.464;19.014;2022-10-31T04:07:24;36.67;;;21.05;;
58760;SDS011;44529;47.464;19.014;2022-10-31T04:10:31;35.22;;;20.75;;
58760;SDS011;44529;47.464;19.014;2022-10-31T04:13:37;33.85;;;20.62;;
58760;SDS011;44529;47.464;19.014;2022-10-31T04:16:42;35.13;;;20.40;;
58760;SDS011;44529;47.464;19.014;2022-10-31T04:19:46;36.67;;;21.45;;
58760;SDS011;44529;47.464;19.014;2022-10-31T04:22:48;34.72;;;20.67;;
58760;SDS011;44529;47.464;19.014;2022-10-31T04:25:51;39.10;;;21.92;;
58760;SDS011;44529;47.464;19.014;2022-10-31T04:28:53;39.13;;;21.33;;
58760;SDS011;44529;47.464;19.014;2022-10-31T04:31:55;39.50;;;21.12;;
58760;SDS011;44529;47.464;19.014;2022-10-31T04:34:58;35.47;;;21.45;;
58760;SDS011;44529;47.464;19.014;2022-10-31T04:38:00;39.70;;;22.45;;
58760;SDS011;44529;47.464;19.014;2022-10-31T04:41:03;38.00;;;20.67;;
58760;SDS011;44529;47.464;19.014;2022-10-31T04:44:06;40.72;;;20.95;;
58760;SDS011;44529;47.464;19.014;2022-10-31T04:47:08;36.00;;;21.77;;
58760;SDS011;44529;47.464;19.014;2022-10-31T04:50:11;38.35;;;21.83;;
58760;SDS011;44529;47.464;19.014;2022-10-31T04:53:13;38.13;;;22.25;;
58760;SDS011;44529;47.464;19.014;2022-10-31T04:56:16;35.20;;;20.12;;
58760;SDS011;44529;47.464;19.014;2022-10-31T04:59:18;38.35;;;20.75;;
58760;SDS011;44529;47.464;19.014;2022-10-31T05:02:21;34.72;;;20.00;;
58760;SDS011;44529;47.464;19.014;2022-10-31T05:05:27;32.42;;;19.90;;
58760;SDS011;44529;47.464;19.014;2022-10-31T05:08:32;34.53;;;20.02;;
58760;SDS011;44529;47.464;19.014;2022-10-31T05:11:36;30.92;;;18.98;;
58760;SDS011;44529;47.464;19.014;2022-10-31T05:14:41;33.50;;;19.20;;
58760;SDS011;44529;47.464;19.014;2022-10-31T05:17:54;34.72;;;19.75;;
58760;SDS011;44529;47.464;19.014;2022-10-31T05:20:59;36.05;;;20.75;;
58760;SDS011;44529;47.464;19.014;2022-10-31T05:24:02;34.33;;;19.58;;
58760;SDS011;44529;47.464;19.014;2022-10-31T05:27:04;32.78;;;18.62;;
58760;SDS011;44529;47.464;19.014;2022-10-31T05:30:07;33.20;;;19.30;;
58760;SDS011;44529;47.464;19.014;2022-10-31T05:33:11;35.78;;;19.62;;
58760;SDS011;44529;47.464;19.014;2022-10-31T05:36:18;33.70;;;19.55;;
58760;SDS011;44529;47.464;19.014;2022-10-31T05:39:22;32.40;;;18.40;;
58760;SDS011;44529;47.464;19.014;2022-10-31T05:42:25;28.15;;;18.02;;
58760;SDS011;44529;47.464;19.014;2022-10-31T05:45:27;34.03;;;19.08;;
58760;SDS011;44529;47.464;19.014;2022-10-31T05:48:30;32.45;;;18.65;;
58760;SDS011;44529;47.464;19.014;2022-10-31T05:51:34;32.03;;;18.48;;
58760;SDS011;44529;47.464;19.014;2022-10-31T05:54:37;34.67;;;18.62;;
58760;SDS011;44529;47.464;19.014;2022-10-31T05:57:39;32.65;;;19.05;;
58760;SDS011;44529;47.464;19.014;2022-10-31T06:00:42;33.20;;;19.55;;
58760;SDS011;44529;47.464;19.014;2022-10-31T06:03:45;36.40;;;20.37;;
58760;SDS011;44529;47.464;19.014;2022-10-31T06:06:49;32.22;;;18.83;;
58760;SDS011;44529;47.464;19.014;2022-10-31T06:09:52;35.47;;;20.00;;
58760;SDS011;44529;47.464;19.014;2022-10-31T06:12:54;33.20;;;20.45;;
58760;SDS011;44529;47.464;19.014;2022-10-31T06:15:57;36.00;;;20.92;;
58760;SDS011;44529;47.464;19.014;2022-10-31T06:18:59;33.10;;;19.52;;
58760;SDS011;44529;47.464;19.014;2022-10-31T06:22:02;34.85;;;19.95;;
58760;SDS011;44529;47.464;19.014;2022-10-31T06:25:04;33.63;;;19.48;;
58760;SDS011;44529;47.464;19.014;2022-10-31T06:28:07;31.25;;;19.15;;
58760;SDS011;44529;47.464;19.014;2022-10-31T06:31:09;35.55;;;19.58;;
58760;SDS011;44529;47.464;19.014;2022-10-31T06:34:12;33.45;;;19.42;;
58760;SDS011;44529;47.464;19.014;2022-10-31T06:37:15;30.40;;;18.62;;
58760;SDS011;44529;47.464;19.014;2022-10-31T06:40:18;34.55;;;19.27;;
58760;SDS011;44529;47.464;19.014;2022-10-31T06:43:22;37.13;;;20.65;;
58760;SDS011;44529;47.464;19.014;2022-10-31T06:46:25;35.33;;;20.42;;
58760;SDS011;44529;47.464;19.014;2022-10-31T06:49:28;39.13;;;21.50;;
58760;SDS011;44529;47.464;19.014;2022-10-31T06:52:31;62.22;;;33.80;;
58760;SDS011;44529;47.464;19.014;2022-10-31T06:55:33;75.28;;;38.70;;
58760;SDS011;44529;47.464;19.014;2022-10-31T06:58:36;69.97;;;34.95;;
58760;SDS011;44529;47.464;19.014;2022-10-31T07:01:38;58.83;;;30.23;;
58760;SDS011;44529;47.464;19.014;2022-10-31T07:04:41;59.58;;;30.40;;
58760;SDS011;44529;47.464;19.014;2022-10-31T07:07:46;60.05;;;29.48;;
58760;SDS011;44529;47.464;19.014;2022-10-31T07:10:56;50.35;;;27.17;;
58760;SDS011;44529;47.464;19.014;2022-10-31T07:13:58;52.50;;;26.65;;
58760;SDS011;44529;47.464;19.014;2022-10-31T07:17:01;44.55;;;24.75;;
58760;SDS011;44529;47.464;19.014;2022-10-31T07:20:05;45.40;;;24.27;;
58760;SDS011;44529;47.464;19.014;2022-10-31T07:23:09;45.97;;;23.90;;
58760;SDS011;44529;47.464;19.014;2022-10-31T07:26:13;45.53;;;22.75;;
58760;SDS011;44529;47.464;19.014;2022-10-31T07:29:16;46.50;;;22.58;;
58760;SDS011;44529;47.464;19.014;2022-10-31T07:32:18;46.80;;;22.50;;
58760;SDS011;44529;47.464;19.014;2022-10-31T07:35:24;44.05;;;22.65;;
58760;SDS011;44529;47.464;19.014;2022-10-31T07:38:28;48.70;;;24.75;;
58760;SDS011;44529;47.464;19.014;2022-10-31T07:41:33;52.85;;;24.85;;
58760;SDS011;44529;47.464;19.014;2022-10-31T07:44:36;56.72;;;24.42;;
58760;SDS011;44529;47.464;19.014;2022-10-31T07:47:41;50.90;;;23.77;;
58760;SDS011;44529;47.464;19.014;2022-10-31T07:50:48;55.33;;;25.52;;
58760;SDS011;44529;47.464;19.014;2022-10-31T07:53:52;51.05;;;25.48;;
58760;SDS011;44529;47.464;19.014;2022-10-31T07:56:56;52.70;;;27.55;;
58760;SDS011;44529;47.464;19.014;2022-10-31T07:59:58;59.83;;;30.37;;
58760;SDS011;44529;47.464;19.014;2022-10-31T08:03:02;61.35;;;30.15;;
58760;SDS011;44529;47.464;19.014;2022-10-31T08:06:12;59.53;;;29.40;;
58760;SDS011;44529;47.464;19.014;2022-10-31T08:09:16;57.80;;;29.65;;
58760;SDS011;44529;47.464;19.014;2022-10-31T08:12:18;54.53;;;26.92;;
58760;SDS011;44529;47.464;19.014;2022-10-31T08:15:21;57.17;;;28.27;;
58760;SDS011;44529;47.464;19.014;2022-10-31T08:18:25;53.83;;;26.55;;
58760;SDS011;44529;47.464;19.014;2022-10-31T08:21:27;50.00;;;26.55;;
58760;SDS011;44529;47.464;19.014;2022-10-31T08:24:31;50.28;;;24.30;;
58760;SDS011;44529;47.464;19.014;2022-10-31T08:27:33;56.65;;;25.65;;
58760;SDS011;44529;47.464;19.014;2022-10-31T08:30:36;55.45;;;25.12;;
58760;SDS011;44529;47.464;19.014;2022-10-31T08:33:44;53.17;;;25.08;;
58760;SDS011;44529;47.464;19.014;2022-10-31T08:36:48;48.92;;;24.27;;
58760;SDS011;44529;47.464;19.014;2022-10-31T08:39:51;48.22;;;25.27;;
58760;SDS011;44529;47.464;19.014;2022-10-31T08:46:04;51.92;;;25.35;;
58760;SDS011;44529;47.464;19.014;2022-10-31T08:49:06;62.10;;;26.42;;
58760;SDS011;44529;47.464;19.014;2022-10-31T08:52:08;56.25;;;26.05;;
58760;SDS011;44529;47.464;19.014;2022-10-31T08:55:15;50.15;;;24.65;;
58760;SDS011;44529;47.464;19.014;2022-10-31T08:58:19;60.30;;;27.77;;
58760;SDS011;44529;47.464;19.014;2022-10-31T09:01:22;49.45;;;26.58;;
58760;SDS011;44529;47.464;19.014;2022-10-31T09:04:24;54.40;;;24.75;;
58760;SDS011;44529;47.464;19.014;2022-10-31T09:07:27;46.92;;;24.02;;
58760;SDS011;44529;47.464;19.014;2022-10-31T09:10:29;42.80;;;22.35;;
58760;SDS011;44529;47.464;19.014;2022-10-31T09:13:33;43.90;;;22.67;;
58760;SDS011;44529;47.464;19.014;2022-10-31T09:16:44;44.47;;;23.30;;
58760;SDS011;44529;47.464;19.014;2022-10-31T09:19:47;42.78;;;22.02;;
58760;SDS011;44529;47.464;19.014;2022-10-31T09:22:59;42.30;;;21.67;;
58760;SDS011;44529;47.464;19.014;2022-10-31T09:26:04;45.78;;;23.35;;
58760;SDS011;44529;47.464;19.014;2022-10-31T09:29:07;43.30;;;21.80;;
58760;SDS011;44529;47.464;19.014;2022-10-31T09:32:11;43.17;;;23.12;;
58760;SDS011;44529;47.464;19.014;2022-10-31T09:35:14;42.60;;;22.13;;
58760;SDS011;44529;47.464;19.014;2022-10-31T09:38:20;43.08;;;22.30;;
58760;SDS011;44529;47.464;19.014;2022-10-31T09:51:23;40.50;;;22.48;;
58760;SDS011;44529;47.464;19.014;2022-10-31T09:54:42;35.88;;;22.08;;
58760;SDS011;44529;47.464;19.014;2022-10-31T09:57:52;38.20;;;20.83;;
58760;SDS011;44529;47.464;19.014;2022-10-31T10:00:56;35.10;;;19.98;;
58760;SDS011;44529;47.464;19.014;2022-10-31T10:04:15;40.03;;;21.45;;
58760;SDS011;44529;47.464;19.014;2022-10-31T10:20:36;39.90;;;22.13;;
58760;SDS011;44529;47.464;19.014;2022-10-31T10:27:39;40.53;;;21.87;;
58760;SDS011;44529;47.464;19.014;2022-10-31T10:30:34;37.63;;;21.10;;
58760;SDS011;44529;47.464;19.014;2022-10-31T10:43:35;38.73;;;21.47;;
58760;SDS011;44529;47.464;19.014;2022-10-31T10:46:50;36.03;;;19.62;;
58760;SDS011;44529;47.464;19.014;2022-10-31T10:57:27;33.00;;;20.10;;
58760;SDS011;44529;47.464;19.014;2022-10-31T11:03:24;35.15;;;19.25;;
58760;SDS011;44529;47.464;19.014;2022-10-31T11:06:27;29.92;;;19.67;;
58760;SDS011;44529;47.464;19.014;2022-10-31T11:09:29;29.60;;;18.42;;
58760;SDS011;44529;47.464;19.014;2022-10-31T11:12:32;30.95;;;18.60;;
58760;SDS011;44529;47.464;19.014;2022-10-31T11:15:37;31.52;;;19.83;;
58760;SDS011;44529;47.464;19.014;2022-10-31T11:18:52;29.48;;;18.25;;
58760;SDS011;44529;47.464;19.014;2022-10-31T11:22:04;28.40;;;18.15;;
58760;SDS011;44529;47.464;19.014;2022-10-31T11:28:24;26.27;;;18.20;;
58760;SDS011;44529;47.464;19.014;2022-10-31T11:31:27;30.75;;;18.12;;
58760;SDS011;44529;47.464;19.014;2022-10-31T11:34:31;26.55;;;18.12;;
58760;SDS011;44529;47.464;19.014;2022-10-31T11:37:40;28.95;;;18.05;;
58760;SDS011;44529;47.464;19.014;2022-10-31T11:40:52;23.87;;;16.87;;
58760;SDS011;44529;47.464;19.014;2022-10-31T11:43:58;25.98;;;18.25;;
58760;SDS011;44529;47.464;19.014;2022-10-31T11:47:04;26.60;;;17.35;;
58760;SDS011;44529;47.464;19.014;2022-10-31T11:50:11;26.73;;;16.17;;
58760;SDS011;44529;47.464;19.014;2022-10-31T11:53:32;27.33;;;17.27;;
58760;SDS011;44529;47.464;19.014;2022-10-31T11:56:41;28.65;;;17.35;;
58760;SDS011;44529;47.464;19.014;2022-10-31T11:59:49;26.75;;;17.60;;
58760;SDS011;44529;47.464;19.014;2022-10-31T12:06:23;27.33;;;17.27;;
58760;SDS011;44529;47.464;19.014;2022-10-31T12:09:35;29.42;;;17.83;;
58760;SDS011;44529;47.464;19.014;2022-10-31T12:12:41;27.65;;;17.62;;
58760;SDS011;44529;47.464;19.014;2022-10-31T12:15:50;24.33;;;16.48;;
58760;SDS011;44529;47.464;19.014;2022-10-31T12:19:08;26.70;;;17.90;;
58760;SDS011;44529;47.464;19.014;2022-10-31T12:22:28;24.58;;;17.27;;
58760;SDS011;44529;47.464;19.014;2022-10-31T12:46:37;24.95;;;17.17;;
58760;SDS011;44529;47.464;19.014;2022-10-31T12:50:05;28.55;;;16.67;;
58760;SDS011;44529;47.464;19.014;2022-10-31T13:00:16;25.92;;;16.52;;
58760;SDS011;44529;47.464;19.014;2022-10-31T13:06:36;27.20;;;17.45;;
58760;SDS011;44529;47.464;19.014;2022-10-31T13:13:23;28.27;;;17.60;;
58760;SDS011;44529;47.464;19.014;2022-10-31T13:16:30;25.27;;;16.27;;
58760;SDS011;44529;47.464;19.014;2022-10-31T13:19:42;27.37;;;17.25;;
58760;SDS011;44529;47.464;19.014;2022-10-31T13:22:48;28.05;;;18.73;;
58760;SDS011;44529;47.464;19.014;2022-10-31T13:25:56;30.95;;;17.90;;
58760;SDS011;44529;47.464;19.014;2022-10-31T13:29:20;29.75;;;18.05;;
58760;SDS011;44529;47.464;19.014;2022-10-31T13:32:48;24.40;;;16.62;;
58760;SDS011;44529;47.464;19.014;2022-10-31T13:45:50;23.62;;;16.73;;
58760;SDS011;44529;47.464;19.014;2022-10-31T13:48:54;22.95;;;16.20;;
58760;SDS011;44529;47.464;19.014;2022-10-31T13:58:37;24.67;;;16.02;;
58760;SDS011;44529;47.464;19.014;2022-10-31T14:01:50;24.15;;;16.90;;
58760;SDS011;44529;47.464;19.014;2022-10-31T14:04:57;23.00;;;15.50;;
58760;SDS011;44529;47.464;19.014;2022-10-31T14:08:19;21.92;;;15.05;;
58760;SDS011;44529;47.464;19.014;2022-10-31T14:11:25;28.33;;;17.10;;
58760;SDS011;44529;47.464;19.014;2022-10-31T14:14:42;23.52;;;16.10;;
58760;SDS011;44529;47.464;19.014;2022-10-31T14:17:58;25.58;;;16.20;;
58760;SDS011;44529;47.464;19.014;2022-10-31T14:21:16;22.87;;;16.37;;
58760;SDS011;44529;47.464;19.014;2022-10-31T14:24:31;27.08;;;16.25;;
58760;SDS011;44529;47.464;19.014;2022-10-31T14:27:42;22.90;;;16.48;;
58760;SDS011;44529;47.464;19.014;2022-10-31T14:30:51;23.35;;;15.90;;
58760;SDS011;44529;47.464;19.014;2022-10-31T14:33:55;24.58;;;16.65;;
58760;SDS011;44529;47.464;19.014;2022-10-31T14:46:47;24.48;;;16.33;;
58760;SDS011;44529;47.464;19.014;2022-10-31T14:50:18;25.17;;;16.02;;
58760;SDS011;44529;47.464;19.014;2022-10-31T14:53:26;24.77;;;15.63;;
58760;SDS011;44529;47.464;19.014;2022-10-31T14:56:35;23.40;;;16.10;;
58760;SDS011;44529;47.464;19.014;2022-10-31T14:59:50;28.25;;;16.02;;
58760;SDS011;44529;47.464;19.014;2022-10-31T15:03:11;25.35;;;16.00;;
58760;SDS011;44529;47.464;19.014;2022-10-31T15:06:18;20.37;;;15.13;;
58760;SDS011;44529;47.464;19.014;2022-10-31T15:09:28;26.05;;;16.73;;
58760;SDS011;44529;47.464;19.014;2022-10-31T15:12:34;25.67;;;16.00;;
58760;SDS011;44529;47.464;19.014;2022-10-31T15:15:40;21.33;;;15.38;;
58760;SDS011;44529;47.464;19.014;2022-10-31T15:18:55;23.10;;;17.05;;
58760;SDS011;44529;47.464;19.014;2022-10-31T15:22:00;24.48;;;16.83;;
58760;SDS011;44529;47.464;19.014;2022-10-31T15:25:03;23.92;;;16.48;;
58760;SDS011;44529;47.464;19.014;2022-10-31T15:28:15;27.90;;;18.35;;
58760;SDS011;44529;47.464;19.014;2022-10-31T15:31:24;30.15;;;18.48;;
58760;SDS011;44529;47.464;19.014;2022-10-31T15:37:34;26.37;;;18.25;;
58760;SDS011;44529;47.464;19.014;2022-10-31T15:40:37;28.45;;;18.10;;
58760;SDS011;44529;47.464;19.014;2022-10-31T15:43:39;27.85;;;18.08;;
58760;SDS011;44529;47.464;19.014;2022-10-31T15:46:42;27.25;;;19.25;;
58760;SDS011;44529;47.464;19.014;2022-10-31T15:49:48;31.52;;;19.65;;
58760;SDS011;44529;47.464;19.014;2022-10-31T15:52:58;30.58;;;18.45;;
58760;SDS011;44529;47.464;19.014;2022-10-31T15:56:02;30.70;;;19.52;;
58760;SDS011;44529;47.464;19.014;2022-10-31T15:59:11;28.35;;;20.45;;
58760;SDS011;44529;47.464;19.014;2022-10-31T16:02:24;28.42;;;18.10;;
58760;SDS011;44529;47.464;19.014;2022-10-31T16:05:34;26.02;;;17.02;;
58760;SDS011;44529;47.464;19.014;2022-10-31T16:08:44;27.13;;;18.30;;
58760;SDS011;44529;47.464;19.014;2022-10-31T16:11:49;27.05;;;17.95;;
58760;SDS011;44529;47.464;19.014;2022-10-31T16:14:53;27.20;;;17.92;;
58760;SDS011;44529;47.464;19.014;2022-10-31T16:17:57;28.48;;;18.25;;
58760;SDS011;44529;47.464;19.014;2022-10-31T16:21:02;26.98;;;17.33;;
58760;SDS011;44529;47.464;19.014;2022-10-31T16:27:24;31.15;;;19.27;;
58760;SDS011;44529;47.464;19.014;2022-10-31T16:33:47;28.00;;;19.27;;
58760;SDS011;44529;47.464;19.014;2022-10-31T16:36:50;30.48;;;20.12;;
58760;SDS011;44529;47.464;19.014;2022-10-31T16:39:52;29.08;;;19.33;;
58760;SDS011;44529;47.464;19.014;2022-10-31T16:42:56;31.42;;;20.67;;
58760;SDS011;44529;47.464;19.014;2022-10-31T16:46:00;33.25;;;22.20;;
58760;SDS011;44529;47.464;19.014;2022-10-31T16:49:02;31.15;;;20.42;;
58760;SDS011;44529;47.464;19.014;2022-10-31T16:52:05;30.80;;;20.08;;
58760;SDS011;44529;47.464;19.014;2022-10-31T16:55:10;35.20;;;21.35;;
58760;SDS011;44529;47.464;19.014;2022-10-31T16:58:17;35.28;;;21.98;;
58760;SDS011;44529;47.464;19.014;2022-10-31T17:01:24;33.13;;;21.40;;
58760;SDS011;44529;47.464;19.014;2022-10-31T17:04:26;34.13;;;22.10;;
58760;SDS011;44529;47.464;19.014;2022-10-31T17:07:28;34.50;;;22.73;;
58760;SDS011;44529;47.464;19.014;2022-10-31T17:10:30;34.58;;;22.40;;
58760;SDS011;44529;47.464;19.014;2022-10-31T17:13:33;33.50;;;21.33;;
58760;SDS011;44529;47.464;19.014;2022-10-31T17:16:36;37.42;;;22.70;;
58760;SDS011;44529;47.464;19.014;2022-10-31T17:19:38;33.53;;;21.48;;
58760;SDS011;44529;47.464;19.014;2022-10-31T17:22:40;34.97;;;22.13;;
58760;SDS011;44529;47.464;19.014;2022-10-31T17:25:43;38.08;;;22.62;;
58760;SDS011;44529;47.464;19.014;2022-10-31T17:28:45;35.28;;;22.33;;
58760;SDS011;44529;47.464;19.014;2022-10-31T17:31:47;37.58;;;20.80;;
58760;SDS011;44529;47.464;19.014;2022-10-31T17:34:50;35.05;;;20.88;;
58760;SDS011;44529;47.464;19.014;2022-10-31T17:37:52;36.53;;;20.50;;
58760;SDS011;44529;47.464;19.014;2022-10-31T17:40:54;34.05;;;19.37;;
58760;SDS011;44529;47.464;19.014;2022-10-31T17:43:57;29.92;;;18.77;;
58760;SDS011;44529;47.464;19.014;2022-10-31T17:47:00;31.23;;;19.55;;
58760;SDS011;44529;47.464;19.014;2022-10-31T17:50:03;30.50;;;19.27;;
58760;SDS011;44529;47.464;19.014;2022-10-31T17:53:05;32.97;;;18.98;;
58760;SDS011;44529;47.464;19.014;2022-10-31T17:56:08;35.70;;;20.35;;
58760;SDS011;44529;47.464;19.014;2022-10-31T17:59:11;31.40;;;19.98;;
58760;SDS011;44529;47.464;19.014;2022-10-31T18:02:13;34.70;;;20.58;;
58760;SDS011;44529;47.464;19.014;2022-10-31T18:05:16;31.67;;;19.40;;
58760;SDS011;44529;47.464;19.014;2022-10-31T18:08:18;36.88;;;19.87;;
58760;SDS011;44529;47.464;19.014;2022-10-31T18:11:20;40.47;;;22.35;;
58760;SDS011;44529;47.464;19.014;2022-10-31T18:14:22;37.10;;;20.70;;
58760;SDS011;44529;47.464;19.014;2022-10-31T18:17:25;38.20;;;21.42;;
58760;SDS011;44529;47.464;19.014;2022-10-31T18:20:27;35.78;;;20.55;;
58760;SDS011;44529;47.464;19.014;2022-10-31T18:23:29;38.40;;;20.67;;
58760;SDS011;44529;47.464;19.014;2022-10-31T18:26:31;40.25;;;21.10;;
58760;SDS011;44529;47.464;19.014;2022-10-31T18:29:34;36.08;;;20.48;;
58760;SDS011;44529;47.464;19.014;2022-10-31T18:32:36;38.40;;;20.25;;
58760;SDS011;44529;47.464;19.014;2022-10-31T18:35:38;40.53;;;21.12;;
58760;SDS011;44529;47.464;19.014;2022-10-31T18:38:41;39.78;;;20.92;;
58760;SDS011;44529;47.464;19.014;2022-10-31T18:41:47;38.90;;;20.25;;
58760;SDS011;44529;47.464;19.014;2022-10-31T18:44:49;38.17;;;20.88;;
58760;SDS011;44529;47.464;19.014;2022-10-31T18:47:52;37.45;;;19.87;;
58760;SDS011;44529;47.464;19.014;2022-10-31T18:50:54;39.92;;;20.23;;
58760;SDS011;44529;47.464;19.014;2022-10-31T18:53:59;40.47;;;20.50;;
58760;SDS011;44529;47.464;19.014;2022-10-31T18:57:02;34.05;;;18.48;;
58760;SDS011;44529;47.464;19.014;2022-10-31T19:00:04;34.28;;;18.90;;
58760;SDS011;44529;47.464;19.014;2022-10-31T19:03:07;32.67;;;18.45;;
58760;SDS011;44529;47.464;19.014;2022-10-31T19:06:10;34.85;;;19.20;;
58760;SDS011;44529;47.464;19.014;2022-10-31T19:09:12;30.75;;;18.60;;
58760;SDS011;44529;47.464;19.014;2022-10-31T19:12:14;35.45;;;19.17;;
58760;SDS011;44529;47.464;19.014;2022-10-31T19:15:16;32.38;;;18.27;;
58760;SDS011;44529;47.464;19.014;2022-10-31T19:18:19;35.70;;;19.10;;
58760;SDS011;44529;47.464;19.014;2022-10-31T19:21:21;35.63;;;18.65;;
58760;SDS011;44529;47.464;19.014;2022-10-31T19:24:24;33.13;;;19.00;;
58760;SDS011;44529;47.464;19.014;2022-10-31T19:27:26;32.17;;;19.00;;
58760;SDS011;44529;47.464;19.014;2022-10-31T19:30:29;31.50;;;17.70;;
58760;SDS011;44529;47.464;19.014;2022-10-31T19:33:31;30.12;;;17.92;;
58760;SDS011;44529;47.464;19.014;2022-10-31T19:36:37;32.45;;;19.40;;
58760;SDS011;44529;47.464;19.014;2022-10-31T19:39:39;30.70;;;19.05;;
58760;SDS011;44529;47.464;19.014;2022-10-31T19:42:45;36.58;;;19.52;;
58760;SDS011;44529;47.464;19.014;2022-10-31T19:45:54;32.67;;;19.00;;
58760;SDS011;44529;47.464;19.014;2022-10-31T19:48:57;32.22;;;19.12;;
58760;SDS011;44529;47.464;19.014;2022-10-31T19:52:00;34.58;;;18.17;;
58760;SDS011;44529;47.464;19.014;2022-10-31T19:55:02;33.05;;;17.55;;
58760;SDS011;44529;47.464;19.014;2022-10-31T19:58:04;30.50;;;17.50;;
58760;SDS011;44529;47.464;19.014;2022-10-31T20:01:07;30.40;;;17.35;;
58760;SDS011;44529;47.464;19.014;2022-10-31T20:04:14;29.12;;;16.62;;
58760;SDS011;44529;47.464;19.014;2022-10-31T20:07:16;31.02;;;17.50;;
58760;SDS011;44529;47.464;19.014;2022-10-31T20:10:19;32.30;;;17.98;;
58760;SDS011;44529;47.464;19.014;2022-10-31T20:13:21;30.92;;;16.87;;
58760;SDS011;44529;47.464;19.014;2022-10-31T20:16:24;30.48;;;16.55;;
58760;SDS011;44529;47.464;19.014;2022-10-31T20:19:27;36.55;;;18.77;;
58760;SDS011;44529;47.464;19.014;2022-10-31T20:22:30;38.10;;;19.50;;
58760;SDS011;44529;47.464;19.014;2022-10-31T20:25:32;43.00;;;20.95;;
58760;SDS011;44529;47.464;19.014;2022-10-31T20:28:34;36.03;;;19.90;;
58760;SDS011;44529;47.464;19.014;2022-10-31T20:31:44;40.63;;;20.85;;